sensor_id;sensor_type;location;lat;lon;timestamp;P1;durP1;ratioP1;P2;durP2;ratioP2
23115;SDS011;11727;52.134;5.052;2023-03-01T00:02:04;10.75;;;6.10;;
23115;SDS011;11727;52.134;5.052;2023-03-01T00:04:31;10.35;;;5.55;;
23115;SDS011;11727;52.134;5.052;2023-03-01T00:06:57;9.57;;;5.20;;
23115;SDS011;11727;52.134;5.052;2023-03-01T00:09:22;10.95;;;5.90;;
23115;SDS011;11727;52.134;5.052;2023-03-01T00:11:48;12.90;;;5.90;;
23115;SDS011;11727;52.134;5.052;2023-03-01T00:14:14;12.43;;;6.15;;
23115;SDS011;11727;52.134;5.052;2023-03-01T00:16:42;16.23;;;6.72;;
23115;SDS011;11727;52.134;5.052;2023-03-01T00:19:09;8.32;;;4.45;;
23115;SDS011;11727;52.134;5.052;2023-03-01T00:21:38;13.82;;;6.03;;
23115;SDS011;11727;52.134;5.052;2023-03-01T00:24:04;10.35;;;5.35;;
23115;SDS011;11727;52.134;5.052;2023-03-01T00:26:30;12.63;;;5.80;;
23115;SDS011;11727;52.134;5.052;2023-03-01T00:28:56;13.38;;;5.95;;
23115;SDS011;11727;52.134;5.052;2023-03-01T00:33:56;14.18;;;6.45;;
23115;SDS011;11727;52.134;5.052;2023-03-01T00:36:23;12.35;;;5.60;;
23115;SDS011;11727;52.134;5.052;2023-03-01T00:38:50;9.90;;;5.28;;
23115;SDS011;11727;52.134;5.052;2023-03-01T00:41:16;9.32;;;4.75;;
23115;SDS011;11727;52.134;5.052;2023-03-01T00:43:44;14.27;;;5.97;;
23115;SDS011;11727;52.134;5.052;2023-03-01T00:46:11;12.20;;;6.00;;
23115;SDS011;11727;52.134;5.052;2023-03-01T00:48:38;16.38;;;5.80;;
23115;SDS011;11727;52.134;5.052;2023-03-01T00:51:07;15.15;;;6.30;;
23115;SDS011;11727;52.134;5.052;2023-03-01T00:53:37;14.57;;;5.70;;
23115;SDS011;11727;52.134;5.052;2023-03-01T00:56:03;11.82;;;5.68;;
23115;SDS011;11727;52.134;5.052;2023-03-01T00:58:30;13.98;;;5.85;;
23115;SDS011;11727;52.134;5.052;2023-03-01T01:00:56;12.35;;;6.88;;
23115;SDS011;11727;52.134;5.052;2023-03-01T01:03:22;16.08;;;6.07;;
23115;SDS011;11727;52.134;5.052;2023-03-01T01:05:49;16.75;;;6.53;;
23115;SDS011;11727;52.134;5.052;2023-03-01T01:08:16;11.88;;;5.78;;
23115;SDS011;11727;52.134;5.052;2023-03-01T01:10:43;10.88;;;5.65;;
23115;SDS011;11727;52.134;5.052;2023-03-01T01:13:09;12.25;;;5.80;;
23115;SDS011;11727;52.134;5.052;2023-03-01T01:15:35;11.75;;;5.10;;
23115;SDS011;11727;52.134;5.052;2023-03-01T01:18:01;12.57;;;6.25;;
23115;SDS011;11727;52.134;5.052;2023-03-01T01:20:27;14.02;;;6.22;;
23115;SDS011;11727;52.134;5.052;2023-03-01T01:22:53;14.55;;;6.05;;
23115;SDS011;11727;52.134;5.052;2023-03-01T01:25:18;12.27;;;5.13;;
23115;SDS011;11727;52.134;5.052;2023-03-01T01:27:44;18.20;;;5.95;;
23115;SDS011;11727;52.134;5.052;2023-03-01T01:30:10;16.70;;;6.07;;
23115;SDS011;11727;52.134;5.052;2023-03-01T01:32:36;10.47;;;5.00;;
23115;SDS011;11727;52.134;5.052;2023-03-01T01:35:02;14.50;;;6.25;;
23115;SDS011;11727;52.134;5.052;2023-03-01T01:37:28;14.60;;;6.63;;
23115;SDS011;11727;52.134;5.052;2023-03-01T01:39:59;13.75;;;5.50;;
23115;SDS011;11727;52.134;5.052;2023-03-01T01:42:26;13.13;;;5.28;;
23115;SDS011;11727;52.134;5.052;2023-03-01T01:47:48;19.33;;;6.95;;
23115;SDS011;11727;52.134;5.052;2023-03-01T01:50:15;11.27;;;5.37;;
23115;SDS011;11727;52.134;5.052;2023-03-01T01:52:43;10.02;;;5.38;;
23115;SDS011;11727;52.134;5.052;2023-03-01T01:55:12;14.18;;;5.38;;
23115;SDS011;11727;52.134;5.052;2023-03-01T01:57:46;14.93;;;6.13;;
23115;SDS011;11727;52.134;5.052;2023-03-01T02:00:26;13.10;;;5.63;;
23115;SDS011;11727;52.134;5.052;2023-03-01T02:02:55;11.65;;;5.60;;
23115;SDS011;11727;52.134;5.052;2023-03-01T02:05:26;9.32;;;5.78;;
23115;SDS011;11727;52.134;5.052;2023-03-01T02:08:08;15.52;;;6.13;;
23115;SDS011;11727;52.134;5.052;2023-03-01T02:10:36;10.45;;;5.45;;
23115;SDS011;11727;52.134;5.052;2023-03-01T02:13:03;12.45;;;5.72;;
23115;SDS011;11727;52.134;5.052;2023-03-01T02:15:35;11.88;;;6.15;;
23115;SDS011;11727;52.134;5.052;2023-03-01T02:18:02;12.32;;;5.43;;
23115;SDS011;11727;52.134;5.052;2023-03-01T02:20:33;13.27;;;5.78;;
23115;SDS011;11727;52.134;5.052;2023-03-01T02:23:13;13.43;;;6.10;;
23115;SDS011;11727;52.134;5.052;2023-03-01T02:30:41;14.48;;;5.65;;
23115;SDS011;11727;52.134;5.052;2023-03-01T02:33:28;12.43;;;5.63;;
23115;SDS011;11727;52.134;5.052;2023-03-01T02:35:57;13.20;;;6.50;;
23115;SDS011;11727;52.134;5.052;2023-03-01T02:38:25;13.82;;;6.25;;
23115;SDS011;11727;52.134;5.052;2023-03-01T02:40:51;10.80;;;5.65;;
23115;SDS011;11727;52.134;5.052;2023-03-01T02:43:19;15.52;;;6.65;;
23115;SDS011;11727;52.134;5.052;2023-03-01T02:45:50;16.17;;;7.45;;
23115;SDS011;11727;52.134;5.052;2023-03-01T02:50:51;18.90;;;6.65;;
23115;SDS011;11727;52.134;5.052;2023-03-01T02:53:53;13.02;;;6.40;;
23115;SDS011;11727;52.134;5.052;2023-03-01T02:56:15;13.48;;;6.07;;
23115;SDS011;11727;52.134;5.052;2023-03-01T02:58:41;13.18;;;6.25;;
23115;SDS011;11727;52.134;5.052;2023-03-01T03:01:16;19.58;;;6.82;;
23115;SDS011;11727;52.134;5.052;2023-03-01T03:03:42;17.60;;;7.00;;
23115;SDS011;11727;52.134;5.052;2023-03-01T03:06:08;14.55;;;6.85;;
23115;SDS011;11727;52.134;5.052;2023-03-01T03:08:34;19.65;;;7.68;;
23115;SDS011;11727;52.134;5.052;2023-03-01T03:10:59;16.50;;;7.30;;
23115;SDS011;11727;52.134;5.052;2023-03-01T03:13:25;19.20;;;6.18;;
23115;SDS011;11727;52.134;5.052;2023-03-01T03:15:54;13.70;;;6.32;;
23115;SDS011;11727;52.134;5.052;2023-03-01T03:18:21;15.05;;;7.20;;
23115;SDS011;11727;52.134;5.052;2023-03-01T03:20:47;13.70;;;7.05;;
23115;SDS011;11727;52.134;5.052;2023-03-01T03:23:17;16.08;;;6.68;;
23115;SDS011;11727;52.134;5.052;2023-03-01T03:25:47;16.85;;;7.82;;
23115;SDS011;11727;52.134;5.052;2023-03-01T03:28:17;14.73;;;6.90;;
23115;SDS011;11727;52.134;5.052;2023-03-01T03:30:42;16.00;;;6.53;;
23115;SDS011;11727;52.134;5.052;2023-03-01T03:33:10;12.13;;;6.18;;
23115;SDS011;11727;52.134;5.052;2023-03-01T03:35:43;19.00;;;7.82;;
23115;SDS011;11727;52.134;5.052;2023-03-01T03:38:12;18.83;;;7.10;;
23115;SDS011;11727;52.134;5.052;2023-03-01T03:40:51;16.92;;;7.57;;
23115;SDS011;11727;52.134;5.052;2023-03-01T03:43:27;14.00;;;7.00;;
23115;SDS011;11727;52.134;5.052;2023-03-01T03:45:53;18.15;;;7.40;;
23115;SDS011;11727;52.134;5.052;2023-03-01T03:48:19;19.80;;;7.40;;
23115;SDS011;11727;52.134;5.052;2023-03-01T03:50:54;20.63;;;7.07;;
23115;SDS011;11727;52.134;5.052;2023-03-01T03:53:21;16.05;;;7.35;;
23115;SDS011;11727;52.134;5.052;2023-03-01T03:55:48;16.85;;;7.10;;
23115;SDS011;11727;52.134;5.052;2023-03-01T03:58:14;16.85;;;7.22;;
23115;SDS011;11727;52.134;5.052;2023-03-01T04:00:43;18.23;;;7.22;;
23115;SDS011;11727;52.134;5.052;2023-03-01T04:03:10;16.63;;;7.38;;
23115;SDS011;11727;52.134;5.052;2023-03-01T04:05:37;15.60;;;7.45;;
23115;SDS011;11727;52.134;5.052;2023-03-01T04:08:03;17.40;;;7.07;;
23115;SDS011;11727;52.134;5.052;2023-03-01T04:10:57;20.65;;;6.57;;
23115;SDS011;11727;52.134;5.052;2023-03-01T04:13:25;13.60;;;6.13;;
23115;SDS011;11727;52.134;5.052;2023-03-01T04:15:52;14.32;;;6.85;;
23115;SDS011;11727;52.134;5.052;2023-03-01T04:18:20;16.83;;;7.63;;
23115;SDS011;11727;52.134;5.052;2023-03-01T04:20:47;14.40;;;6.63;;
23115;SDS011;11727;52.134;5.052;2023-03-01T04:23:14;12.60;;;6.80;;
23115;SDS011;11727;52.134;5.052;2023-03-01T04:28:18;14.50;;;5.95;;
23115;SDS011;11727;52.134;5.052;2023-03-01T04:30:44;18.80;;;7.88;;
23115;SDS011;11727;52.134;5.052;2023-03-01T04:33:10;13.77;;;7.03;;
23115;SDS011;11727;52.134;5.052;2023-03-01T04:35:36;14.20;;;7.17;;
23115;SDS011;11727;52.134;5.052;2023-03-01T04:38:03;16.42;;;5.18;;
23115;SDS011;11727;52.134;5.052;2023-03-01T04:40:30;14.68;;;7.07;;
23115;SDS011;11727;52.134;5.052;2023-03-01T04:42:56;14.38;;;6.85;;
23115;SDS011;11727;52.134;5.052;2023-03-01T04:45:22;15.80;;;6.95;;
23115;SDS011;11727;52.134;5.052;2023-03-01T04:47:48;13.95;;;5.80;;
23115;SDS011;11727;52.134;5.052;2023-03-01T04:50:15;17.27;;;7.32;;
23115;SDS011;11727;52.134;5.052;2023-03-01T04:52:42;14.77;;;7.05;;
23115;SDS011;11727;52.134;5.052;2023-03-01T04:55:09;20.58;;;8.27;;
23115;SDS011;11727;52.134;5.052;2023-03-01T04:57:35;18.55;;;6.93;;
23115;SDS011;11727;52.134;5.052;2023-03-01T05:00:02;13.82;;;7.20;;
23115;SDS011;11727;52.134;5.052;2023-03-01T05:02:44;16.48;;;7.57;;
23115;SDS011;11727;52.134;5.052;2023-03-01T05:05:18;14.65;;;7.05;;
23115;SDS011;11727;52.134;5.052;2023-03-01T05:07:45;21.58;;;8.68;;
23115;SDS011;11727;52.134;5.052;2023-03-01T05:10:10;19.98;;;8.77;;
23115;SDS011;11727;52.134;5.052;2023-03-01T05:12:36;20.55;;;8.38;;
23115;SDS011;11727;52.134;5.052;2023-03-01T05:15:02;20.38;;;7.82;;
23115;SDS011;11727;52.134;5.052;2023-03-01T05:17:32;18.83;;;8.50;;
23115;SDS011;11727;52.134;5.052;2023-03-01T05:19:58;23.13;;;9.07;;
23115;SDS011;11727;52.134;5.052;2023-03-01T05:22:24;22.15;;;9.90;;
23115;SDS011;11727;52.134;5.052;2023-03-01T05:24:50;23.08;;;10.18;;
23115;SDS011;11727;52.134;5.052;2023-03-01T05:27:16;22.50;;;8.85;;
23115;SDS011;11727;52.134;5.052;2023-03-01T05:29:41;17.75;;;7.68;;
23115;SDS011;11727;52.134;5.052;2023-03-01T05:32:07;19.65;;;8.70;;
23115;SDS011;11727;52.134;5.052;2023-03-01T05:34:35;16.90;;;6.90;;
23115;SDS011;11727;52.134;5.052;2023-03-01T05:39:27;23.67;;;7.55;;
23115;SDS011;11727;52.134;5.052;2023-03-01T05:41:54;21.95;;;8.98;;
23115;SDS011;11727;52.134;5.052;2023-03-01T05:44:22;18.40;;;8.40;;
23115;SDS011;11727;52.134;5.052;2023-03-01T05:46:48;19.30;;;7.97;;
23115;SDS011;11727;52.134;5.052;2023-03-01T05:49:14;17.67;;;7.45;;
23115;SDS011;11727;52.134;5.052;2023-03-01T05:51:41;18.53;;;7.73;;
23115;SDS011;11727;52.134;5.052;2023-03-01T05:54:08;20.98;;;8.05;;
23115;SDS011;11727;52.134;5.052;2023-03-01T05:56:36;13.10;;;6.20;;
23115;SDS011;11727;52.134;5.052;2023-03-01T05:59:03;16.33;;;7.40;;
23115;SDS011;11727;52.134;5.052;2023-03-01T06:01:30;18.73;;;7.93;;
23115;SDS011;11727;52.134;5.052;2023-03-01T06:03:56;19.07;;;7.60;;
23115;SDS011;11727;52.134;5.052;2023-03-01T06:06:22;23.52;;;7.95;;
23115;SDS011;11727;52.134;5.052;2023-03-01T06:08:49;19.30;;;5.65;;
23115;SDS011;11727;52.134;5.052;2023-03-01T06:11:14;18.23;;;7.22;;
23115;SDS011;11727;52.134;5.052;2023-03-01T06:13:41;16.75;;;8.15;;
23115;SDS011;11727;52.134;5.052;2023-03-01T06:18:33;20.40;;;8.30;;
23115;SDS011;11727;52.134;5.052;2023-03-01T06:20:59;17.45;;;6.85;;
23115;SDS011;11727;52.134;5.052;2023-03-01T06:23:24;17.30;;;6.95;;
23115;SDS011;11727;52.134;5.052;2023-03-01T06:25:50;16.70;;;7.70;;
23115;SDS011;11727;52.134;5.052;2023-03-01T06:28:16;17.73;;;7.45;;
23115;SDS011;11727;52.134;5.052;2023-03-01T06:30:41;14.90;;;7.20;;
23115;SDS011;11727;52.134;5.052;2023-03-01T06:33:07;19.95;;;7.50;;
23115;SDS011;11727;52.134;5.052;2023-03-01T06:35:33;21.15;;;7.25;;
23115;SDS011;11727;52.134;5.052;2023-03-01T06:37:59;13.60;;;6.43;;
23115;SDS011;11727;52.134;5.052;2023-03-01T06:40:26;15.65;;;7.10;;
23115;SDS011;11727;52.134;5.052;2023-03-01T06:42:52;17.92;;;6.72;;
23115;SDS011;11727;52.134;5.052;2023-03-01T06:45:18;14.95;;;7.13;;
23115;SDS011;11727;52.134;5.052;2023-03-01T06:50:11;19.50;;;7.82;;
23115;SDS011;11727;52.134;5.052;2023-03-01T06:52:37;19.52;;;7.78;;
23115;SDS011;11727;52.134;5.052;2023-03-01T06:55:03;24.98;;;7.85;;
23115;SDS011;11727;52.134;5.052;2023-03-01T06:57:29;23.10;;;8.13;;
23115;SDS011;11727;52.134;5.052;2023-03-01T06:59:55;17.65;;;7.70;;
23115;SDS011;11727;52.134;5.052;2023-03-01T07:02:21;21.77;;;8.25;;
23115;SDS011;11727;52.134;5.052;2023-03-01T07:04:48;23.67;;;8.02;;
23115;SDS011;11727;52.134;5.052;2023-03-01T07:07:15;21.60;;;9.07;;
23115;SDS011;11727;52.134;5.052;2023-03-01T07:09:42;21.05;;;8.30;;
23115;SDS011;11727;52.134;5.052;2023-03-01T07:12:11;21.52;;;8.73;;
23115;SDS011;11727;52.134;5.052;2023-03-01T07:14:37;17.10;;;8.30;;
23115;SDS011;11727;52.134;5.052;2023-03-01T07:17:03;28.15;;;8.80;;
23115;SDS011;11727;52.134;5.052;2023-03-01T07:19:28;21.80;;;9.70;;
23115;SDS011;11727;52.134;5.052;2023-03-01T07:21:54;21.02;;;9.45;;
23115;SDS011;11727;52.134;5.052;2023-03-01T07:24:20;18.45;;;8.98;;
23115;SDS011;11727;52.134;5.052;2023-03-01T07:26:49;20.13;;;9.00;;
23115;SDS011;11727;52.134;5.052;2023-03-01T07:29:16;20.23;;;9.63;;
23115;SDS011;11727;52.134;5.052;2023-03-01T07:31:42;20.95;;;9.07;;
23115;SDS011;11727;52.134;5.052;2023-03-01T07:34:08;20.75;;;7.95;;
23115;SDS011;11727;52.134;5.052;2023-03-01T07:36:33;18.67;;;8.75;;
23115;SDS011;11727;52.134;5.052;2023-03-01T07:38:59;20.23;;;8.57;;
23115;SDS011;11727;52.134;5.052;2023-03-01T07:41:27;19.25;;;9.27;;
23115;SDS011;11727;52.134;5.052;2023-03-01T07:43:52;27.00;;;10.05;;
23115;SDS011;11727;52.134;5.052;2023-03-01T07:46:18;19.95;;;8.98;;
23115;SDS011;11727;52.134;5.052;2023-03-01T07:48:44;17.90;;;8.45;;
23115;SDS011;11727;52.134;5.052;2023-03-01T07:51:09;17.75;;;8.55;;
23115;SDS011;11727;52.134;5.052;2023-03-01T07:53:35;24.95;;;10.43;;
23115;SDS011;11727;52.134;5.052;2023-03-01T07:56:05;22.10;;;9.77;;
23115;SDS011;11727;52.134;5.052;2023-03-01T07:58:36;17.67;;;8.40;;
23115;SDS011;11727;52.134;5.052;2023-03-01T08:01:04;17.20;;;8.25;;
23115;SDS011;11727;52.134;5.052;2023-03-01T08:03:32;21.58;;;9.43;;
23115;SDS011;11727;52.134;5.052;2023-03-01T08:06:02;17.87;;;8.47;;
23115;SDS011;11727;52.134;5.052;2023-03-01T08:08:29;17.05;;;8.32;;
23115;SDS011;11727;52.134;5.052;2023-03-01T08:10:58;20.30;;;8.98;;
23115;SDS011;11727;52.134;5.052;2023-03-01T08:13:25;18.55;;;8.18;;
23115;SDS011;11727;52.134;5.052;2023-03-01T08:15:51;19.30;;;8.88;;
23115;SDS011;11727;52.134;5.052;2023-03-01T08:18:17;15.32;;;6.95;;
23115;SDS011;11727;52.134;5.052;2023-03-01T08:20:45;19.55;;;7.72;;
23115;SDS011;11727;52.134;5.052;2023-03-01T08:23:10;15.40;;;7.55;;
23115;SDS011;11727;52.134;5.052;2023-03-01T08:25:36;13.13;;;7.07;;
23115;SDS011;11727;52.134;5.052;2023-03-01T08:28:03;16.55;;;7.80;;
23115;SDS011;11727;52.134;5.052;2023-03-01T08:30:29;18.77;;;6.50;;
23115;SDS011;11727;52.134;5.052;2023-03-01T08:32:54;15.85;;;6.65;;
23115;SDS011;11727;52.134;5.052;2023-03-01T08:35:20;14.20;;;6.80;;
23115;SDS011;11727;52.134;5.052;2023-03-01T08:37:46;11.45;;;5.80;;
23115;SDS011;11727;52.134;5.052;2023-03-01T08:40:12;15.00;;;6.30;;
23115;SDS011;11727;52.134;5.052;2023-03-01T08:42:39;13.07;;;6.40;;
23115;SDS011;11727;52.134;5.052;2023-03-01T08:45:06;12.45;;;5.80;;
23115;SDS011;11727;52.134;5.052;2023-03-01T08:47:32;12.82;;;5.07;;
23115;SDS011;11727;52.134;5.052;2023-03-01T08:49:58;11.35;;;5.35;;
23115;SDS011;11727;52.134;5.052;2023-03-01T08:52:24;9.15;;;5.00;;
23115;SDS011;11727;52.134;5.052;2023-03-01T08:54:51;14.05;;;4.85;;
23115;SDS011;11727;52.134;5.052;2023-03-01T08:57:16;10.93;;;4.60;;
23115;SDS011;11727;52.134;5.052;2023-03-01T08:59:42;12.82;;;5.22;;
23115;SDS011;11727;52.134;5.052;2023-03-01T09:02:17;9.25;;;4.30;;
23115;SDS011;11727;52.134;5.052;2023-03-01T09:04:43;9.35;;;4.60;;
23115;SDS011;11727;52.134;5.052;2023-03-01T09:07:10;11.55;;;4.80;;
23115;SDS011;11727;52.134;5.052;2023-03-01T09:09:35;12.35;;;4.95;;
23115;SDS011;11727;52.134;5.052;2023-03-01T09:12:01;8.98;;;3.83;;
23115;SDS011;11727;52.134;5.052;2023-03-01T09:14:28;9.25;;;4.28;;
23115;SDS011;11727;52.134;5.052;2023-03-01T09:16:53;8.45;;;4.45;;
23115;SDS011;11727;52.134;5.052;2023-03-01T09:19:19;10.40;;;3.85;;
23115;SDS011;11727;52.134;5.052;2023-03-01T09:21:45;10.02;;;4.63;;
23115;SDS011;11727;52.134;5.052;2023-03-01T09:24:17;10.32;;;4.85;;
23115;SDS011;11727;52.134;5.052;2023-03-01T09:26:44;12.63;;;5.55;;
23115;SDS011;11727;52.134;5.052;2023-03-01T09:29:12;12.55;;;4.60;;
23115;SDS011;11727;52.134;5.052;2023-03-01T09:31:39;11.77;;;3.42;;
23115;SDS011;11727;52.134;5.052;2023-03-01T09:34:05;10.55;;;3.58;;
23115;SDS011;11727;52.134;5.052;2023-03-01T09:36:31;9.90;;;4.53;;
23115;SDS011;11727;52.134;5.052;2023-03-01T09:39:01;10.48;;;4.13;;
23115;SDS011;11727;52.134;5.052;2023-03-01T09:46:54;7.20;;;3.47;;
23115;SDS011;11727;52.134;5.052;2023-03-01T09:49:23;12.55;;;4.63;;
23115;SDS011;11727;52.134;5.052;2023-03-01T09:54:29;9.98;;;4.53;;
23115;SDS011;11727;52.134;5.052;2023-03-01T10:13:14;5.80;;;2.35;;
23115;SDS011;11727;52.134;5.052;2023-03-01T10:15:49;4.18;;;2.10;;
23115;SDS011;11727;52.134;5.052;2023-03-01T10:18:21;4.38;;;1.90;;
23115;SDS011;11727;52.134;5.052;2023-03-01T10:21:12;4.85;;;1.92;;
23115;SDS011;11727;52.134;5.052;2023-03-01T10:23:41;9.13;;;2.25;;
23115;SDS011;11727;52.134;5.052;2023-03-01T10:28:59;4.90;;;2.38;;
23115;SDS011;11727;52.134;5.052;2023-03-01T10:31:44;7.25;;;3.53;;
23115;SDS011;11727;52.134;5.052;2023-03-01T10:34:19;6.68;;;2.80;;
23115;SDS011;11727;52.134;5.052;2023-03-01T10:36:55;8.60;;;3.47;;
23115;SDS011;11727;52.134;5.052;2023-03-01T10:39:24;10.27;;;3.03;;
23115;SDS011;11727;52.134;5.052;2023-03-01T10:47:18;5.35;;;2.53;;
23115;SDS011;11727;52.134;5.052;2023-03-01T10:49:59;5.68;;;2.45;;
23115;SDS011;11727;52.134;5.052;2023-03-01T10:52:28;4.68;;;2.10;;
23115;SDS011;11727;52.134;5.052;2023-03-01T10:56:02;4.85;;;2.33;;
23115;SDS011;11727;52.134;5.052;2023-03-01T11:05:59;4.20;;;2.30;;
23115;SDS011;11727;52.134;5.052;2023-03-01T11:08:43;7.40;;;2.63;;
23115;SDS011;11727;52.134;5.052;2023-03-01T11:11:31;5.15;;;2.22;;
23115;SDS011;11727;52.134;5.052;2023-03-01T11:14:03;8.93;;;2.43;;
23115;SDS011;11727;52.134;5.052;2023-03-01T11:16:37;8.82;;;2.47;;
23115;SDS011;11727;52.134;5.052;2023-03-01T11:21:35;5.10;;;2.75;;
23115;SDS011;11727;52.134;5.052;2023-03-01T11:24:06;7.65;;;3.05;;
23115;SDS011;11727;52.134;5.052;2023-03-01T11:26:37;5.20;;;2.28;;
23115;SDS011;11727;52.134;5.052;2023-03-01T11:29:10;5.40;;;2.38;;
23115;SDS011;11727;52.134;5.052;2023-03-01T11:31:43;9.77;;;2.42;;
23115;SDS011;11727;52.134;5.052;2023-03-01T11:37:15;3.78;;;1.75;;
23115;SDS011;11727;52.134;5.052;2023-03-01T11:39:55;7.85;;;2.58;;
23115;SDS011;11727;52.134;5.052;2023-03-01T11:45:13;8.00;;;3.10;;
23115;SDS011;11727;52.134;5.052;2023-03-01T11:52:39;8.48;;;2.75;;
23115;SDS011;11727;52.134;5.052;2023-03-01T12:03:33;3.40;;;1.67;;
23115;SDS011;11727;52.134;5.052;2023-03-01T12:40:03;5.63;;;2.60;;
23115;SDS011;11727;52.134;5.052;2023-03-01T12:50:41;4.30;;;1.67;;
23115;SDS011;11727;52.134;5.052;2023-03-01T12:56:08;5.10;;;2.20;;
23115;SDS011;11727;52.134;5.052;2023-03-01T13:06:19;5.80;;;2.17;;
23115;SDS011;11727;52.134;5.052;2023-03-01T13:09:13;5.35;;;2.13;;
23115;SDS011;11727;52.134;5.052;2023-03-01T13:11:48;4.15;;;1.80;;
23115;SDS011;11727;52.134;5.052;2023-03-01T13:16:45;2.90;;;1.80;;
23115;SDS011;11727;52.134;5.052;2023-03-01T13:19:20;5.40;;;2.20;;
23115;SDS011;11727;52.134;5.052;2023-03-01T13:21:51;4.85;;;2.05;;
23115;SDS011;11727;52.134;5.052;2023-03-01T13:32:26;4.50;;;2.20;;
23115;SDS011;11727;52.134;5.052;2023-03-01T13:34:56;4.07;;;2.15;;
23115;SDS011;11727;52.134;5.052;2023-03-01T13:37:27;7.28;;;1.98;;
23115;SDS011;11727;52.134;5.052;2023-03-01T13:39:58;2.22;;;1.33;;
23115;SDS011;11727;52.134;5.052;2023-03-01T13:42:34;5.03;;;1.70;;
23115;SDS011;11727;52.134;5.052;2023-03-01T13:45:15;3.70;;;1.80;;
23115;SDS011;11727;52.134;5.052;2023-03-01T13:47:47;4.05;;;1.90;;
23115;SDS011;11727;52.134;5.052;2023-03-01T13:50:22;3.92;;;1.70;;
23115;SDS011;11727;52.134;5.052;2023-03-01T13:52:52;9.02;;;2.13;;
23115;SDS011;11727;52.134;5.052;2023-03-01T13:55:40;4.35;;;1.88;;
23115;SDS011;11727;52.134;5.052;2023-03-01T14:00:46;7.07;;;2.08;;
23115;SDS011;11727;52.134;5.052;2023-03-01T14:03:13;3.60;;;1.70;;
23115;SDS011;11727;52.134;5.052;2023-03-01T14:05:42;7.05;;;2.28;;
23115;SDS011;11727;52.134;5.052;2023-03-01T14:08:23;4.20;;;1.75;;
23115;SDS011;11727;52.134;5.052;2023-03-01T14:11:04;3.88;;;1.75;;
23115;SDS011;11727;52.134;5.052;2023-03-01T14:16:58;2.83;;;1.42;;
23115;SDS011;11727;52.134;5.052;2023-03-01T14:19:44;3.45;;;1.42;;
23115;SDS011;11727;52.134;5.052;2023-03-01T14:24:46;3.28;;;1.75;;
23115;SDS011;11727;52.134;5.052;2023-03-01T14:27:17;3.13;;;1.80;;
23115;SDS011;11727;52.134;5.052;2023-03-01T14:29:44;3.67;;;1.73;;
23115;SDS011;11727;52.134;5.052;2023-03-01T14:32:30;7.00;;;2.33;;
23115;SDS011;11727;52.134;5.052;2023-03-01T14:34:57;2.17;;;1.40;;
23115;SDS011;11727;52.134;5.052;2023-03-01T14:37:25;2.95;;;1.33;;
23115;SDS011;11727;52.134;5.052;2023-03-01T14:39:53;3.42;;;1.75;;
23115;SDS011;11727;52.134;5.052;2023-03-01T14:42:20;3.97;;;1.67;;
23115;SDS011;11727;52.134;5.052;2023-03-01T14:44:49;4.50;;;1.50;;
23115;SDS011;11727;52.134;5.052;2023-03-01T14:50:24;5.13;;;1.92;;
23115;SDS011;11727;52.134;5.052;2023-03-01T14:53:02;4.70;;;2.17;;
23115;SDS011;11727;52.134;5.052;2023-03-01T14:55:34;2.97;;;1.30;;
23115;SDS011;11727;52.134;5.052;2023-03-01T14:58:08;3.42;;;1.70;;
23115;SDS011;11727;52.134;5.052;2023-03-01T15:00:37;4.47;;;2.20;;
23115;SDS011;11727;52.134;5.052;2023-03-01T15:03:07;3.70;;;1.85;;
23115;SDS011;11727;52.134;5.052;2023-03-01T15:05:38;5.65;;;1.85;;
23115;SDS011;11727;52.134;5.052;2023-03-01T15:08:05;5.57;;;1.77;;
23115;SDS011;11727;52.134;5.052;2023-03-01T15:10:35;6.43;;;1.73;;
23115;SDS011;11727;52.134;5.052;2023-03-01T15:13:19;4.35;;;1.92;;
23115;SDS011;11727;52.134;5.052;2023-03-01T15:15:48;4.47;;;1.85;;
23115;SDS011;11727;52.134;5.052;2023-03-01T15:20:51;4.40;;;1.90;;
23115;SDS011;11727;52.134;5.052;2023-03-01T15:25:51;3.75;;;1.90;;
23115;SDS011;11727;52.134;5.052;2023-03-01T15:28:30;2.17;;;1.23;;
23115;SDS011;11727;52.134;5.052;2023-03-01T15:31:24;3.55;;;1.58;;
23115;SDS011;11727;52.134;5.052;2023-03-01T15:36:31;5.18;;;1.98;;
23115;SDS011;11727;52.134;5.052;2023-03-01T15:38:59;4.43;;;1.92;;
23115;SDS011;11727;52.134;5.052;2023-03-01T15:41:27;5.70;;;2.10;;
23115;SDS011;11727;52.134;5.052;2023-03-01T15:43:58;4.60;;;1.63;;
23115;SDS011;11727;52.134;5.052;2023-03-01T15:46:34;5.03;;;2.10;;
23115;SDS011;11727;52.134;5.052;2023-03-01T15:49:05;5.85;;;1.75;;
23115;SDS011;11727;52.134;5.052;2023-03-01T15:52:00;6.75;;;2.20;;
23115;SDS011;11727;52.134;5.052;2023-03-01T15:54:26;4.70;;;2.30;;
23115;SDS011;11727;52.134;5.052;2023-03-01T15:56:52;3.60;;;1.83;;
23115;SDS011;11727;52.134;5.052;2023-03-01T15:59:18;4.75;;;1.88;;
23115;SDS011;11727;52.134;5.052;2023-03-01T16:01:44;4.70;;;2.05;;
23115;SDS011;11727;52.134;5.052;2023-03-01T16:04:11;3.78;;;1.88;;
23115;SDS011;11727;52.134;5.052;2023-03-01T16:06:41;3.75;;;2.00;;
23115;SDS011;11727;52.134;5.052;2023-03-01T16:09:07;8.68;;;1.92;;
23115;SDS011;11727;52.134;5.052;2023-03-01T16:11:32;5.65;;;2.50;;
23115;SDS011;11727;52.134;5.052;2023-03-01T16:14:01;5.07;;;2.10;;
23115;SDS011;11727;52.134;5.052;2023-03-01T16:16:27;7.03;;;3.15;;
23115;SDS011;11727;52.134;5.052;2023-03-01T16:18:53;3.45;;;1.75;;
23115;SDS011;11727;52.134;5.052;2023-03-01T16:21:20;5.73;;;2.50;;
23115;SDS011;11727;52.134;5.052;2023-03-01T16:23:48;5.00;;;2.58;;
23115;SDS011;11727;52.134;5.052;2023-03-01T16:26:14;8.30;;;2.42;;
23115;SDS011;11727;52.134;5.052;2023-03-01T16:28:41;5.75;;;2.55;;
23115;SDS011;11727;52.134;5.052;2023-03-01T16:31:07;5.95;;;2.70;;
23115;SDS011;11727;52.134;5.052;2023-03-01T16:33:33;4.43;;;2.22;;
23115;SDS011;11727;52.134;5.052;2023-03-01T16:36:00;3.88;;;1.73;;
23115;SDS011;11727;52.134;5.052;2023-03-01T16:38:31;5.65;;;2.58;;
23115;SDS011;11727;52.134;5.052;2023-03-01T16:40:57;5.47;;;2.30;;
23115;SDS011;11727;52.134;5.052;2023-03-01T16:43:22;5.00;;;2.25;;
23115;SDS011;11727;52.134;5.052;2023-03-01T16:45:48;8.23;;;2.33;;
23115;SDS011;11727;52.134;5.052;2023-03-01T16:48:14;6.10;;;2.75;;
23115;SDS011;11727;52.134;5.052;2023-03-01T16:50:39;6.60;;;2.10;;
23115;SDS011;11727;52.134;5.052;2023-03-01T16:53:05;6.70;;;2.67;;
23115;SDS011;11727;52.134;5.052;2023-03-01T16:55:31;5.18;;;2.50;;
23115;SDS011;11727;52.134;5.052;2023-03-01T16:57:56;5.47;;;2.42;;
23115;SDS011;11727;52.134;5.052;2023-03-01T17:00:22;4.72;;;2.38;;
23115;SDS011;11727;52.134;5.052;2023-03-01T17:02:48;7.85;;;3.40;;
23115;SDS011;11727;52.134;5.052;2023-03-01T17:05:13;18.05;;;6.43;;
23115;SDS011;11727;52.134;5.052;2023-03-01T17:07:39;11.13;;;2.85;;
23115;SDS011;11727;52.134;5.052;2023-03-01T17:10:06;7.55;;;2.67;;
23115;SDS011;11727;52.134;5.052;2023-03-01T17:12:34;5.03;;;2.25;;
23115;SDS011;11727;52.134;5.052;2023-03-01T17:15:01;8.20;;;2.78;;
23115;SDS011;11727;52.134;5.052;2023-03-01T17:17:26;4.90;;;2.35;;
23115;SDS011;11727;52.134;5.052;2023-03-01T17:19:52;4.10;;;2.40;;
23115;SDS011;11727;52.134;5.052;2023-03-01T17:22:18;4.80;;;2.60;;
23115;SDS011;11727;52.134;5.052;2023-03-01T17:24:44;5.72;;;2.78;;
23115;SDS011;11727;52.134;5.052;2023-03-01T17:27:10;8.43;;;3.05;;
23115;SDS011;11727;52.134;5.052;2023-03-01T17:29:37;5.78;;;2.85;;
23115;SDS011;11727;52.134;5.052;2023-03-01T17:32:03;10.60;;;3.05;;
23115;SDS011;11727;52.134;5.052;2023-03-01T17:34:30;7.00;;;2.95;;
23115;SDS011;11727;52.134;5.052;2023-03-01T17:36:56;6.85;;;2.67;;
23115;SDS011;11727;52.134;5.052;2023-03-01T17:39:22;6.65;;;3.00;;